METAR Data
IDs: Format: Raw Decoded Include TAF

Data at: 2037 UTC 18 Apr 2021

KVDF 182035Z AUTO 23011G17KT 10SM CLR 29/22 A2986 RMK AO2
KVDF 182015Z AUTO 22012G18KT 10SM CLR 30/22 A2987 RMK AO2
KVDF 181955Z AUTO 23012G20KT 10SM CLR 29/22 A2988 RMK AO2
KVDF 181935Z AUTO 22012G19KT 10SM CLR 30/23 A2987 RMK AO2
KVDF 181915Z AUTO 23013G19KT 10SM CLR 31/23 A2988 RMK AO2
KVDF 181855Z AUTO 23013KT 10SM CLR 30/22 A2989 RMK AO2
KVDF 181835Z AUTO 23015G27KT 10SM CLR 31/22 A2990 RMK AO2
KVDF 181815Z AUTO 24011G18KT 195V265 10SM SCT048 31/22 A2990 RMK AO2
KVDF 181755Z AUTO 23014G18KT 10SM SCT031 SCT048 30/22 A2991 RMK AO2
KVDF 181735Z AUTO 25008G17KT 215V285 10SM SCT027 30/23 A2991 RMK AO2
KVDF 181715Z AUTO 24008G17KT 10SM CLR 30/23 A2991 RMK AO2
KVDF 181655Z AUTO 24006KT 10SM SCT026 SCT033 30/23 A2991 RMK AO2
KVDF 181635Z AUTO 24009G16KT 10SM SCT021 SCT028 SCT033 30/23 A2992 RMK AO2
KVDF 181615Z AUTO 22013G17KT 10SM BKN021 BKN028 29/23 A2993 RMK AO2
KVDF 181555Z AUTO 22008KT 10SM BKN019 BKN024 29/24 A2994 RMK AO2
KVDF 181535Z AUTO 24008G17KT 10SM BKN019 BKN024 28/23 A2995 RMK AO2
KVDF 181515Z AUTO 23010G14KT 10SM BKN019 BKN024 BKN030 28/23 A2995 RMK AO2
KVDF 181455Z AUTO 23011KT 10SM OVC019 27/23 A2995 RMK AO2
KVDF 181435Z AUTO 22010KT 10SM BKN017 BKN021 27/23 A2994 RMK AO2
KVDF 181415Z AUTO 23014KT 10SM BKN015 BKN021 27/23 A2994 RMK AO2
KVDF 181355Z AUTO 22013KT 10SM SCT013 27/23 A2994 RMK AO2
KVDF 181335Z AUTO 23012KT 10SM BKN011 27/23 A2994 RMK AO2
KVDF 181315Z AUTO 21011KT 10SM SCT009 27/24 A2993 RMK AO2
KVDF 181255Z AUTO 21010KT 10SM SCT009 26/23 A2993 RMK AO2
KVDF 181235Z AUTO 21009KT 10SM CLR 26/23 A2993 RMK AO2
KVDF 181215Z AUTO 21008KT 7SM SCT007 SCT011 BKN046 25/23 A2993 RMK AO2
KVDF 181155Z AUTO 21006KT 7SM BKN007 OVC012 25/23 A2993 RMK AO2
KVDF 181135Z AUTO 20004KT 7SM BKN007 BKN014 OVC022 25/23 A2993 RMK AO2
KVDF 181115Z AUTO 20005KT 7SM BKN009 OVC020 25/23 A2992 RMK AO2
KVDF 181055Z AUTO 22003KT 7SM OVC011 25/23 A2992 RMK AO2
KVDF 181035Z AUTO 20004KT 7SM BKN011 OVC015 25/23 A2991 RMK AO2
KVDF 181015Z AUTO 23003KT 10SM BKN014 BKN024 OVC036 25/23 A2991 RMK AO2
KVDF 180955Z AUTO 22005KT 10SM SCT014 SCT026 OVC036 25/23 A2990 RMK AO2
KVDF 180935Z AUTO 22004KT 10SM SCT014 BKN026 OVC042 25/23 A2990 RMK AO2
KVDF 180915Z AUTO 25003KT 10SM SCT010 BKN026 OVC034 25/23 A2990 RMK AO2
KVDF 180855Z AUTO 23004KT 10SM SCT009 BKN015 OVC029 25/23 A2990 RMK AO2
KVDF 180835Z AUTO 22003KT 10SM BKN009 OVC013 25/23 A2990 RMK AO2
KVDF 180815Z AUTO 00000KT 10SM SCT009 OVC018 25/23 A2990 RMK AO2
KVDF 180755Z AUTO 21003KT 10SM BKN013 OVC018 25/23 A2990 RMK AO2
KVDF 180735Z AUTO 23003KT 10SM BKN013 OVC030 25/23 A2991 RMK AO2
KVDF 180715Z AUTO 22003KT 7SM OVC013 25/23 A2991 RMK AO2
KVDF 180655Z AUTO 23004KT 10SM BKN013 BKN032 OVC095 25/23 A2991 RMK AO2
KVDF 180635Z AUTO 23006KT 10SM SCT015 BKN033 OVC080 25/23 A2991 RMK AO2
KVDF 180615Z AUTO 23006KT 10SM BKN015 BKN030 OVC060 25/23 A2992 RMK AO2
KVDF 180555Z AUTO 23005KT 10SM SCT012 BKN033 OVC046 25/23 A2992 RMK AO2
KVDF 180535Z AUTO 25003KT 7SM SCT015 OVC024 25/23 A2992 RMK AO2
KVDF 180515Z AUTO 23004KT 7SM SCT015 BKN023 BKN027 25/23 A2993 RMK AO2
KVDF 180455Z AUTO 21005KT 10SM SCT012 BKN020 BKN028 25/23 A2992 RMK AO2
KVDF 180435Z AUTO 20005KT 10SM BKN014 BKN020 OVC026 25/23 A2993 RMK AO2
KVDF 180415Z AUTO 00000KT 10SM BKN014 BKN020 OVC030 25/23 A2993 RMK AO2
KVDF 180355Z AUTO 24003KT 10SM SCT014 SCT019 OVC032 25/23 A2992 RMK AO2
KVDF 180335Z AUTO 24004KT 10SM BKN014 OVC019 26/23 A2992 RMK AO2
KVDF 180315Z AUTO 23006KT 10SM BKN014 OVC021 26/23 A2991 RMK AO2
KVDF 180255Z AUTO 23007KT 10SM BKN012 OVC019 26/23 A2991 RMK AO2
KVDF 180235Z AUTO 23005KT 10SM OVC012 25/23 A2990 RMK AO2
KVDF 180215Z AUTO 23007KT 10SM BKN012 OVC021 26/23 A2990 RMK AO2
KVDF 180155Z AUTO 22008KT 10SM SCT016 OVC021 26/23 A2989 RMK AO2
KVDF 180135Z AUTO 22006KT 10SM BKN020 OVC027 26/23 A2989 RMK AO2
KVDF 180115Z AUTO 21007KT 10SM SCT020 SCT027 26/23 A2988 RMK AO2
KVDF 180055Z AUTO 24006KT 10SM SCT022 26/22 A2988 RMK AO2
KVDF 180035Z AUTO 24005KT 10SM SCT022 26/22 A2988 RMK AO2
KVDF 180015Z AUTO 24006KT 10SM BKN022 26/22 A2988 RMK AO2
KVDF 172355Z AUTO 24005KT 10SM SCT024 SCT031 BKN050 27/22 A2988 RMK AO2
KVDF 172335Z AUTO 23005KT 10SM OVC022 27/22 A2987 RMK AO2
KVDF 172315Z AUTO 22009KT 10SM BKN022 OVC028 27/23 A2987 RMK AO2
KVDF 172255Z AUTO 22010KT 10SM SCT020 BKN030 BKN035 28/23 A2986 RMK AO2
KVDF 172235Z AUTO 24007KT 10SM BKN032 BKN039 28/22 A2986 RMK AO2
KVDF 172215Z AUTO 23009G14KT 10SM BKN032 BKN040 BKN049 28/22 A2986 RMK AO2
KVDF 172155Z AUTO 25006KT 10SM SCT034 SCT049 BKN055 28/21 A2986 RMK AO2
KVDF 172135Z AUTO 24008KT 10SM SCT034 SCT041 SCT055 28/21 A2986 RMK AO2
KVDF 172115Z AUTO 24006KT 10SM SCT034 SCT043 28/22 A2985 RMK AO2
KVDF 172055Z AUTO 26006KT 10SM SCT034 BKN041 BKN048 29/21 A2985 RMK AO2
KVDF 172035Z AUTO 26006KT 10SM BKN034 BKN041 BKN050 29/22 A2985 RMK AO2
KVDF 172015Z AUTO 24009KT 10SM BKN032 BKN038 BKN050 29/22 A2985 RMK AO2
KVDF 171955Z AUTO 23011G15KT 10SM BKN030 BKN041 OVC049 29/22 A2986 RMK AO2
KVDF 171935Z AUTO 24008KT 10SM BKN031 BKN042 OVC050 29/22 A2986 RMK AO2
KVDF 171915Z AUTO 24006G16KT 10SM SCT026 SCT030 BKN037 28/22 A2987 RMK AO2
KVDF 171855Z AUTO 22010G16KT 10SM SCT024 SCT035 SCT045 29/23 A2987 RMK AO2
KVDF 171835Z AUTO 22014G18KT 10SM SCT024 SCT029 BKN050 28/23 A2988 RMK AO2
KVDF 171815Z AUTO 23011G16KT 10SM BKN028 BKN035 OVC050 28/23 A2989 RMK AO2
KVDF 171755Z AUTO 23009KT 10SM BKN032 BKN042 BKN050 29/22 A2989 RMK AO2
KVDF 171735Z AUTO 22008G19KT 10SM BKN032 BKN038 OVC050 28/22 A2990 RMK AO2
KVDF 171715Z AUTO 24009KT 10SM SCT030 BKN037 BKN050 30/22 A2990 RMK AO2
KVDF 171655Z AUTO 23009KT 10SM SCT032 SCT043 SCT050 29/22 A2990 RMK AO2
KVDF 171635Z AUTO 25007KT 215V275 10SM SCT026 SCT032 BKN043 28/22 A2991 RMK AO2
KVDF 171615Z AUTO 26006KT 10SM SCT024 BKN030 BKN035 28/22 A2993 RMK AO2
KVDF 171555Z AUTO 25006KT 10SM BKN022 BKN030 OVC050 27/22 A2993 RMK AO2
KVDF 171535Z AUTO 22005KT 10SM BKN022 BKN040 OVC050 27/22 A2993 RMK AO2
KVDF 171515Z AUTO 24004KT 10SM BKN018 BKN026 OVC050 27/23 A2993 RMK AO2
KVDF 171455Z AUTO 25004KT 10SM BKN018 BKN026 OVC050 26/23 A2993 RMK AO2
KVDF 171435Z AUTO 24007KT 10SM BKN016 BKN022 BKN037 26/23 A2992 RMK AO2
KVDF 171415Z AUTO 24004KT 10SM BKN014 BKN022 OVC035 26/23 A2991 RMK AO2
KVDF 171355Z AUTO 23005KT 10SM BKN014 BKN018 OVC024 25/23 A2991 RMK AO2
KVDF 171335Z AUTO 22007KT 10SM BKN014 OVC018 25/23 A2989 RMK AO2
KVDF 171315Z AUTO 22007KT 10SM OVC014 25/23 A2989 RMK AO2
KVDF 171255Z AUTO 23005KT 10SM BKN014 OVC021 25/23 A2990 RMK AO2
KVDF 171235Z AUTO 23007KT 10SM BKN012 OVC021 25/23 A2990 RMK AO2
KVDF 171215Z AUTO 24007KT 10SM OVC012 25/23 A2990 RMK AO2
KVDF 171155Z AUTO 23008KT 7SM OVC012 25/22 A2988 RMK AO2
KVDF 171135Z AUTO 22008KT 7SM OVC012 25/22 A2988 RMK AO2
KVDF 171115Z AUTO 23008KT 7SM OVC010 25/22 A2987 RMK AO2
KVDF 171055Z AUTO 23009KT 7SM OVC012 24/22 A2985 RMK AO2
KVDF 171035Z AUTO 22008KT 7SM OVC012 24/22 A2985 RMK AO2
KVDF 171015Z AUTO 23008KT 7SM BKN012 24/22 A2985 RMK AO2
KVDF 170955Z AUTO 22012G15KT 7SM BKN012 BKN016 25/22 A2985 RMK AO2
KVDF 170935Z AUTO 22009KT 7SM BKN012 25/22 A2984 RMK AO2
KVDF 170915Z AUTO 22008KT 7SM SCT012 24/22 A2984 RMK AO2
KVDF 170855Z AUTO 22007KT 7SM CLR 24/22 A2985 RMK AO2